sensor_id;sensor_type;location;lat;lon;timestamp;P1;durP1;ratioP1;P2;durP2;ratioP2
52468;SDS011;38381;53.688;10.776;2023-11-21T00:01:18;11.07;;;8.18;;
52468;SDS011;38381;53.688;10.776;2023-11-21T00:06:19;10.27;;;7.65;;
52468;SDS011;38381;53.688;10.776;2023-11-21T00:11:20;9.38;;;7.85;;
52468;SDS011;38381;53.688;10.776;2023-11-21T00:16:21;9.27;;;8.32;;
52468;SDS011;38381;53.688;10.776;2023-11-21T00:21:22;7.85;;;7.05;;
52468;SDS011;38381;53.688;10.776;2023-11-21T00:26:23;10.40;;;6.75;;
52468;SDS011;38381;53.688;10.776;2023-11-21T00:31:24;7.50;;;6.78;;
52468;SDS011;38381;53.688;10.776;2023-11-21T00:36:24;10.57;;;8.07;;
52468;SDS011;38381;53.688;10.776;2023-11-21T00:41:26;10.70;;;8.20;;
52468;SDS011;38381;53.688;10.776;2023-11-21T00:46:27;8.00;;;6.60;;
52468;SDS011;38381;53.688;10.776;2023-11-21T00:51:29;7.85;;;6.90;;
52468;SDS011;38381;53.688;10.776;2023-11-21T00:56:30;7.95;;;7.15;;
52468;SDS011;38381;53.688;10.776;2023-11-21T01:01:30;7.93;;;6.80;;
52468;SDS011;38381;53.688;10.776;2023-11-21T01:06:31;9.32;;;6.38;;
52468;SDS011;38381;53.688;10.776;2023-11-21T01:11:31;7.03;;;6.28;;
52468;SDS011;38381;53.688;10.776;2023-11-21T01:16:33;7.32;;;6.00;;
52468;SDS011;38381;53.688;10.776;2023-11-21T01:21:33;7.65;;;6.38;;
52468;SDS011;38381;53.688;10.776;2023-11-21T01:26:34;7.43;;;6.25;;
52468;SDS011;38381;53.688;10.776;2023-11-21T01:31:34;8.25;;;6.00;;
52468;SDS011;38381;53.688;10.776;2023-11-21T01:36:34;8.30;;;6.50;;
52468;SDS011;38381;53.688;10.776;2023-11-21T01:41:35;7.20;;;6.15;;
52468;SDS011;38381;53.688;10.776;2023-11-21T01:46:36;6.22;;;5.63;;
52468;SDS011;38381;53.688;10.776;2023-11-21T01:51:37;7.00;;;6.30;;
52468;SDS011;38381;53.688;10.776;2023-11-21T01:56:38;7.78;;;6.25;;
52468;SDS011;38381;53.688;10.776;2023-11-21T02:01:39;8.00;;;5.15;;
52468;SDS011;38381;53.688;10.776;2023-11-21T02:06:39;6.35;;;5.75;;
52468;SDS011;38381;53.688;10.776;2023-11-21T02:11:40;7.57;;;6.50;;
52468;SDS011;38381;53.688;10.776;2023-11-21T02:16:40;7.63;;;6.80;;
52468;SDS011;38381;53.688;10.776;2023-11-21T02:21:41;6.63;;;5.32;;
52468;SDS011;38381;53.688;10.776;2023-11-21T02:26:42;8.13;;;6.23;;
52468;SDS011;38381;53.688;10.776;2023-11-21T02:31:43;9.65;;;5.88;;
52468;SDS011;38381;53.688;10.776;2023-11-21T02:36:49;7.45;;;5.95;;
52468;SDS011;38381;53.688;10.776;2023-11-21T02:41:50;6.88;;;5.90;;
52468;SDS011;38381;53.688;10.776;2023-11-21T02:46:50;6.78;;;5.18;;
52468;SDS011;38381;53.688;10.776;2023-11-21T02:51:51;5.70;;;4.28;;
52468;SDS011;38381;53.688;10.776;2023-11-21T02:56:51;7.03;;;5.60;;
52468;SDS011;38381;53.688;10.776;2023-11-21T03:01:51;5.90;;;5.20;;
52468;SDS011;38381;53.688;10.776;2023-11-21T03:06:52;6.65;;;5.80;;
52468;SDS011;38381;53.688;10.776;2023-11-21T03:11:53;7.10;;;5.75;;
52468;SDS011;38381;53.688;10.776;2023-11-21T03:16:54;7.20;;;6.50;;
52468;SDS011;38381;53.688;10.776;2023-11-21T03:21:54;6.38;;;5.65;;
52468;SDS011;38381;53.688;10.776;2023-11-21T03:26:54;8.57;;;6.82;;
52468;SDS011;38381;53.688;10.776;2023-11-21T03:31:55;8.95;;;7.53;;
52468;SDS011;38381;53.688;10.776;2023-11-21T03:36:56;7.93;;;6.88;;
52468;SDS011;38381;53.688;10.776;2023-11-21T03:41:56;9.90;;;6.65;;
52468;SDS011;38381;53.688;10.776;2023-11-21T03:46:57;8.35;;;7.03;;
52468;SDS011;38381;53.688;10.776;2023-11-21T03:51:57;9.13;;;7.72;;
52468;SDS011;38381;53.688;10.776;2023-11-21T03:56:57;9.50;;;7.35;;
52468;SDS011;38381;53.688;10.776;2023-11-21T04:01:58;8.25;;;6.85;;
52468;SDS011;38381;53.688;10.776;2023-11-21T04:06:58;8.55;;;7.13;;
52468;SDS011;38381;53.688;10.776;2023-11-21T04:11:58;7.47;;;6.20;;
52468;SDS011;38381;53.688;10.776;2023-11-21T04:16:59;7.13;;;6.28;;
52468;SDS011;38381;53.688;10.776;2023-11-21T04:21:59;9.27;;;8.02;;
52468;SDS011;38381;53.688;10.776;2023-11-21T04:27:00;9.48;;;6.30;;
52468;SDS011;38381;53.688;10.776;2023-11-21T04:32:01;10.38;;;8.00;;
52468;SDS011;38381;53.688;10.776;2023-11-21T04:37:02;7.22;;;6.47;;
52468;SDS011;38381;53.688;10.776;2023-11-21T04:42:03;6.53;;;5.93;;
52468;SDS011;38381;53.688;10.776;2023-11-21T04:47:04;10.23;;;6.80;;
52468;SDS011;38381;53.688;10.776;2023-11-21T04:52:05;10.13;;;7.68;;
52468;SDS011;38381;53.688;10.776;2023-11-21T04:57:05;8.07;;;7.28;;
52468;SDS011;38381;53.688;10.776;2023-11-21T05:02:07;8.70;;;7.80;;
52468;SDS011;38381;53.688;10.776;2023-11-21T05:07:08;9.38;;;7.53;;
52468;SDS011;38381;53.688;10.776;2023-11-21T05:12:08;8.50;;;7.40;;
52468;SDS011;38381;53.688;10.776;2023-11-21T05:17:08;8.18;;;7.18;;
52468;SDS011;38381;53.688;10.776;2023-11-21T05:22:09;7.88;;;7.18;;
52468;SDS011;38381;53.688;10.776;2023-11-21T05:27:11;8.60;;;7.25;;
52468;SDS011;38381;53.688;10.776;2023-11-21T05:32:12;8.07;;;7.25;;
52468;SDS011;38381;53.688;10.776;2023-11-21T05:37:13;7.22;;;6.53;;
52468;SDS011;38381;53.688;10.776;2023-11-21T05:42:14;9.02;;;7.70;;
52468;SDS011;38381;53.688;10.776;2023-11-21T05:47:14;8.52;;;7.72;;
52468;SDS011;38381;53.688;10.776;2023-11-21T05:52:15;8.00;;;7.20;;
52468;SDS011;38381;53.688;10.776;2023-11-21T05:57:15;7.15;;;6.38;;
52468;SDS011;38381;53.688;10.776;2023-11-21T06:02:16;7.00;;;6.28;;
52468;SDS011;38381;53.688;10.776;2023-11-21T06:07:16;7.63;;;6.82;;
52468;SDS011;38381;53.688;10.776;2023-11-21T06:12:16;7.63;;;6.63;;
52468;SDS011;38381;53.688;10.776;2023-11-21T06:17:17;7.80;;;6.45;;
52468;SDS011;38381;53.688;10.776;2023-11-21T06:22:18;6.65;;;6.05;;
52468;SDS011;38381;53.688;10.776;2023-11-21T06:27:18;7.38;;;6.32;;
52468;SDS011;38381;53.688;10.776;2023-11-21T06:32:18;7.50;;;6.70;;
52468;SDS011;38381;53.688;10.776;2023-11-21T06:37:20;7.47;;;5.33;;
52468;SDS011;38381;53.688;10.776;2023-11-21T06:42:24;7.50;;;5.57;;
52468;SDS011;38381;53.688;10.776;2023-11-21T06:47:25;6.38;;;5.78;;
52468;SDS011;38381;53.688;10.776;2023-11-21T06:52:26;8.20;;;6.60;;
52468;SDS011;38381;53.688;10.776;2023-11-21T06:57:26;6.82;;;5.65;;
52468;SDS011;38381;53.688;10.776;2023-11-21T07:02:27;6.82;;;5.97;;
52468;SDS011;38381;53.688;10.776;2023-11-21T07:07:28;11.40;;;6.60;;
52468;SDS011;38381;53.688;10.776;2023-11-21T07:12:31;6.75;;;5.82;;
52468;SDS011;38381;53.688;10.776;2023-11-21T07:17:32;9.32;;;7.13;;
52468;SDS011;38381;53.688;10.776;2023-11-21T07:22:32;7.60;;;5.75;;
52468;SDS011;38381;53.688;10.776;2023-11-21T07:27:33;5.63;;;4.82;;
52468;SDS011;38381;53.688;10.776;2023-11-21T07:32:35;8.70;;;5.47;;
52468;SDS011;38381;53.688;10.776;2023-11-21T07:37:36;5.90;;;5.38;;
52468;SDS011;38381;53.688;10.776;2023-11-21T07:42:37;7.22;;;5.47;;
52468;SDS011;38381;53.688;10.776;2023-11-21T07:47:37;9.40;;;7.13;;
52468;SDS011;38381;53.688;10.776;2023-11-21T07:52:39;6.30;;;4.90;;
52468;SDS011;38381;53.688;10.776;2023-11-21T07:57:39;5.70;;;4.57;;
52468;SDS011;38381;53.688;10.776;2023-11-21T08:02:40;5.35;;;4.72;;
52468;SDS011;38381;53.688;10.776;2023-11-21T08:07:46;5.32;;;4.68;;
52468;SDS011;38381;53.688;10.776;2023-11-21T08:12:46;4.68;;;4.20;;
52468;SDS011;38381;53.688;10.776;2023-11-21T08:17:48;4.80;;;4.30;;
52468;SDS011;38381;53.688;10.776;2023-11-21T08:22:48;6.80;;;4.75;;
52468;SDS011;38381;53.688;10.776;2023-11-21T08:27:49;4.20;;;3.80;;
52468;SDS011;38381;53.688;10.776;2023-11-21T08:32:49;5.75;;;4.45;;
52468;SDS011;38381;53.688;10.776;2023-11-21T08:37:52;5.28;;;4.78;;
52468;SDS011;38381;53.688;10.776;2023-11-21T08:42:55;4.25;;;3.65;;
52468;SDS011;38381;53.688;10.776;2023-11-21T08:47:58;5.07;;;4.03;;
52468;SDS011;38381;53.688;10.776;2023-11-21T08:52:59;5.38;;;4.50;;
52468;SDS011;38381;53.688;10.776;2023-11-21T08:57:59;4.63;;;4.13;;
52468;SDS011;38381;53.688;10.776;2023-11-21T09:03:00;9.80;;;6.63;;
52468;SDS011;38381;53.688;10.776;2023-11-21T09:08:02;9.95;;;5.20;;
52468;SDS011;38381;53.688;10.776;2023-11-21T09:13:02;6.38;;;5.55;;
52468;SDS011;38381;53.688;10.776;2023-11-21T09:18:03;5.40;;;4.32;;
52468;SDS011;38381;53.688;10.776;2023-11-21T09:23:05;6.73;;;4.77;;
52468;SDS011;38381;53.688;10.776;2023-11-21T09:28:05;4.07;;;3.67;;
52468;SDS011;38381;53.688;10.776;2023-11-21T09:33:09;4.15;;;3.78;;
52468;SDS011;38381;53.688;10.776;2023-11-21T09:38:10;6.40;;;4.30;;
52468;SDS011;38381;53.688;10.776;2023-11-21T09:43:17;5.13;;;4.43;;
52468;SDS011;38381;53.688;10.776;2023-11-21T09:48:18;5.55;;;4.22;;
52468;SDS011;38381;53.688;10.776;2023-11-21T09:53:20;4.05;;;3.53;;
52468;SDS011;38381;53.688;10.776;2023-11-21T09:58:23;5.20;;;3.78;;
52468;SDS011;38381;53.688;10.776;2023-11-21T10:03:24;4.65;;;4.15;;
52468;SDS011;38381;53.688;10.776;2023-11-21T10:08:25;5.68;;;3.63;;
52468;SDS011;38381;53.688;10.776;2023-11-21T10:13:28;4.65;;;3.90;;
52468;SDS011;38381;53.688;10.776;2023-11-21T10:18:31;4.20;;;3.78;;
52468;SDS011;38381;53.688;10.776;2023-11-21T10:23:34;5.75;;;4.35;;
52468;SDS011;38381;53.688;10.776;2023-11-21T10:28:37;5.88;;;5.07;;
52468;SDS011;38381;53.688;10.776;2023-11-21T10:33:39;4.93;;;4.43;;
52468;SDS011;38381;53.688;10.776;2023-11-21T10:38:42;4.80;;;4.30;;
52468;SDS011;38381;53.688;10.776;2023-11-21T10:43:44;5.32;;;4.15;;
52468;SDS011;38381;53.688;10.776;2023-11-21T10:48:45;6.70;;;4.72;;
52468;SDS011;38381;53.688;10.776;2023-11-21T10:53:45;5.88;;;4.53;;
52468;SDS011;38381;53.688;10.776;2023-11-21T10:58:50;6.43;;;4.43;;
52468;SDS011;38381;53.688;10.776;2023-11-21T11:03:54;6.40;;;4.68;;
52468;SDS011;38381;53.688;10.776;2023-11-21T11:08:55;5.40;;;4.30;;
52468;SDS011;38381;53.688;10.776;2023-11-21T11:13:56;4.90;;;4.03;;
52468;SDS011;38381;53.688;10.776;2023-11-21T11:18:56;8.13;;;4.80;;
52468;SDS011;38381;53.688;10.776;2023-11-21T11:34:36;4.13;;;3.70;;
52468;SDS011;38381;53.688;10.776;2023-11-21T11:39:44;4.18;;;3.78;;
52468;SDS011;38381;53.688;10.776;2023-11-21T11:44:46;4.32;;;3.92;;
52468;SDS011;38381;53.688;10.776;2023-11-21T11:55:23;5.75;;;4.38;;
52468;SDS011;38381;53.688;10.776;2023-11-21T12:05:31;5.82;;;3.65;;
52468;SDS011;38381;53.688;10.776;2023-11-21T12:15:38;6.32;;;3.88;;
52468;SDS011;38381;53.688;10.776;2023-11-21T12:20:40;5.25;;;4.30;;
52468;SDS011;38381;53.688;10.776;2023-11-21T12:25:42;4.78;;;3.97;;
52468;SDS011;38381;53.688;10.776;2023-11-21T12:30:43;5.82;;;4.28;;
52468;SDS011;38381;53.688;10.776;2023-11-21T12:35:43;4.65;;;3.85;;
52468;SDS011;38381;53.688;10.776;2023-11-21T12:40:44;4.65;;;3.83;;
52468;SDS011;38381;53.688;10.776;2023-11-21T12:45:45;4.32;;;3.60;;
52468;SDS011;38381;53.688;10.776;2023-11-21T12:50:45;4.15;;;3.58;;
52468;SDS011;38381;53.688;10.776;2023-11-21T12:55:49;6.53;;;4.25;;
52468;SDS011;38381;53.688;10.776;2023-11-21T13:00:50;4.75;;;4.15;;
52468;SDS011;38381;53.688;10.776;2023-11-21T13:05:52;6.63;;;5.87;;
52468;SDS011;38381;53.688;10.776;2023-11-21T13:10:58;4.68;;;4.28;;
52468;SDS011;38381;53.688;10.776;2023-11-21T13:16:01;4.43;;;3.95;;
52468;SDS011;38381;53.688;10.776;2023-11-21T13:21:06;4.93;;;4.20;;
52468;SDS011;38381;53.688;10.776;2023-11-21T13:26:17;6.93;;;3.95;;
52468;SDS011;38381;53.688;10.776;2023-11-21T13:31:20;4.03;;;3.38;;
52468;SDS011;38381;53.688;10.776;2023-11-21T13:36:22;4.60;;;4.05;;
52468;SDS011;38381;53.688;10.776;2023-11-21T13:41:24;4.82;;;3.35;;
52468;SDS011;38381;53.688;10.776;2023-11-21T13:46:30;4.00;;;3.28;;
52468;SDS011;38381;53.688;10.776;2023-11-21T13:51:37;6.22;;;3.35;;
52468;SDS011;38381;53.688;10.776;2023-11-21T13:56:46;4.25;;;3.85;;
52468;SDS011;38381;53.688;10.776;2023-11-21T14:01:46;4.63;;;3.67;;
52468;SDS011;38381;53.688;10.776;2023-11-21T14:06:53;5.95;;;3.70;;
52468;SDS011;38381;53.688;10.776;2023-11-21T14:11:55;6.40;;;3.45;;
52468;SDS011;38381;53.688;10.776;2023-11-21T14:16:57;3.55;;;3.25;;
52468;SDS011;38381;53.688;10.776;2023-11-21T14:21:59;3.22;;;2.92;;
52468;SDS011;38381;53.688;10.776;2023-11-21T14:26:59;2.70;;;2.40;;
52468;SDS011;38381;53.688;10.776;2023-11-21T14:32:00;3.25;;;2.70;;
52468;SDS011;38381;53.688;10.776;2023-11-21T14:37:00;3.17;;;2.87;;
52468;SDS011;38381;53.688;10.776;2023-11-21T14:42:03;2.95;;;2.60;;
52468;SDS011;38381;53.688;10.776;2023-11-21T14:47:04;2.40;;;2.10;;
52468;SDS011;38381;53.688;10.776;2023-11-21T14:52:12;2.63;;;2.40;;
52468;SDS011;38381;53.688;10.776;2023-11-21T14:57:33;4.25;;;2.60;;
52468;SDS011;38381;53.688;10.776;2023-11-21T15:02:34;4.10;;;2.78;;
52468;SDS011;38381;53.688;10.776;2023-11-21T15:07:49;4.32;;;2.80;;
52468;SDS011;38381;53.688;10.776;2023-11-21T15:12:52;4.75;;;2.40;;
52468;SDS011;38381;53.688;10.776;2023-11-21T15:17:52;3.47;;;2.63;;
52468;SDS011;38381;53.688;10.776;2023-11-21T15:22:52;2.63;;;2.25;;
52468;SDS011;38381;53.688;10.776;2023-11-21T15:27:53;2.67;;;2.40;;
52468;SDS011;38381;53.688;10.776;2023-11-21T15:32:53;2.75;;;2.50;;
52468;SDS011;38381;53.688;10.776;2023-11-21T15:37:54;3.67;;;2.50;;
52468;SDS011;38381;53.688;10.776;2023-11-21T15:42:57;3.47;;;2.60;;
52468;SDS011;38381;53.688;10.776;2023-11-21T15:47:58;2.63;;;2.42;;
52468;SDS011;38381;53.688;10.776;2023-11-21T15:52:59;2.83;;;2.20;;
52468;SDS011;38381;53.688;10.776;2023-11-21T15:58:01;3.15;;;1.85;;
52468;SDS011;38381;53.688;10.776;2023-11-21T16:03:04;3.00;;;2.50;;
52468;SDS011;38381;53.688;10.776;2023-11-21T16:08:05;3.38;;;2.72;;
52468;SDS011;38381;53.688;10.776;2023-11-21T16:13:06;3.50;;;2.78;;
52468;SDS011;38381;53.688;10.776;2023-11-21T16:18:08;2.45;;;2.25;;
52468;SDS011;38381;53.688;10.776;2023-11-21T16:23:08;3.63;;;3.22;;
52468;SDS011;38381;53.688;10.776;2023-11-21T16:28:09;4.07;;;3.67;;
52468;SDS011;38381;53.688;10.776;2023-11-21T16:33:09;4.60;;;4.10;;
52468;SDS011;38381;53.688;10.776;2023-11-21T16:38:11;3.58;;;3.28;;
52468;SDS011;38381;53.688;10.776;2023-11-21T16:43:12;4.18;;;3.00;;
52468;SDS011;38381;53.688;10.776;2023-11-21T16:48:13;4.43;;;3.58;;
52468;SDS011;38381;53.688;10.776;2023-11-21T16:53:13;4.35;;;4.00;;
52468;SDS011;38381;53.688;10.776;2023-11-21T16:58:14;4.80;;;4.20;;
52468;SDS011;38381;53.688;10.776;2023-11-21T17:03:16;4.50;;;3.50;;
52468;SDS011;38381;53.688;10.776;2023-11-21T17:08:16;5.72;;;3.53;;
52468;SDS011;38381;53.688;10.776;2023-11-21T17:13:17;4.20;;;3.65;;
52468;SDS011;38381;53.688;10.776;2023-11-21T17:18:18;4.82;;;4.32;;
52468;SDS011;38381;53.688;10.776;2023-11-21T17:23:18;6.75;;;4.07;;
52468;SDS011;38381;53.688;10.776;2023-11-21T17:28:18;5.03;;;4.47;;
52468;SDS011;38381;53.688;10.776;2023-11-21T17:33:19;4.95;;;3.60;;
52468;SDS011;38381;53.688;10.776;2023-11-21T17:38:19;4.53;;;4.13;;
52468;SDS011;38381;53.688;10.776;2023-11-21T17:43:20;6.87;;;4.07;;
52468;SDS011;38381;53.688;10.776;2023-11-21T17:48:21;4.43;;;4.00;;
52468;SDS011;38381;53.688;10.776;2023-11-21T17:53:21;4.35;;;3.42;;
52468;SDS011;38381;53.688;10.776;2023-11-21T17:58:22;4.40;;;3.95;;
52468;SDS011;38381;53.688;10.776;2023-11-21T18:03:23;4.78;;;4.03;;
52468;SDS011;38381;53.688;10.776;2023-11-21T18:08:23;5.95;;;4.40;;
52468;SDS011;38381;53.688;10.776;2023-11-21T18:13:24;5.03;;;4.47;;
52468;SDS011;38381;53.688;10.776;2023-11-21T18:18:24;3.60;;;3.30;;
52468;SDS011;38381;53.688;10.776;2023-11-21T18:23:27;3.92;;;3.15;;
52468;SDS011;38381;53.688;10.776;2023-11-21T18:28:28;4.13;;;3.70;;
52468;SDS011;38381;53.688;10.776;2023-11-21T18:33:29;4.30;;;3.67;;
52468;SDS011;38381;53.688;10.776;2023-11-21T18:38:29;4.25;;;3.85;;
52468;SDS011;38381;53.688;10.776;2023-11-21T18:43:30;3.22;;;2.92;;
52468;SDS011;38381;53.688;10.776;2023-11-21T18:48:30;4.00;;;3.55;;
52468;SDS011;38381;53.688;10.776;2023-11-21T18:53:30;4.60;;;4.15;;
52468;SDS011;38381;53.688;10.776;2023-11-21T18:58:34;4.18;;;3.72;;
52468;SDS011;38381;53.688;10.776;2023-11-21T19:03:36;4.35;;;3.55;;
52468;SDS011;38381;53.688;10.776;2023-11-21T19:08:36;4.28;;;3.30;;
52468;SDS011;38381;53.688;10.776;2023-11-21T19:13:37;3.83;;;3.30;;
52468;SDS011;38381;53.688;10.776;2023-11-21T19:18:37;4.18;;;3.78;;
52468;SDS011;38381;53.688;10.776;2023-11-21T19:23:38;7.10;;;6.05;;
52468;SDS011;38381;53.688;10.776;2023-11-21T19:28:38;5.68;;;4.07;;
52468;SDS011;38381;53.688;10.776;2023-11-21T19:33:39;4.80;;;3.20;;
52468;SDS011;38381;53.688;10.776;2023-11-21T19:38:39;4.70;;;3.28;;
52468;SDS011;38381;53.688;10.776;2023-11-21T19:43:40;7.22;;;3.50;;
52468;SDS011;38381;53.688;10.776;2023-11-21T19:48:42;3.33;;;2.97;;
52468;SDS011;38381;53.688;10.776;2023-11-21T19:53:43;3.65;;;3.25;;
52468;SDS011;38381;53.688;10.776;2023-11-21T19:58:43;4.30;;;2.70;;
52468;SDS011;38381;53.688;10.776;2023-11-21T20:03:44;3.83;;;2.58;;
52468;SDS011;38381;53.688;10.776;2023-11-21T20:08:44;3.20;;;2.70;;
52468;SDS011;38381;53.688;10.776;2023-11-21T20:13:51;3.13;;;2.83;;
52468;SDS011;38381;53.688;10.776;2023-11-21T20:18:56;2.97;;;2.40;;
52468;SDS011;38381;53.688;10.776;2023-11-21T20:23:59;3.92;;;2.67;;
52468;SDS011;38381;53.688;10.776;2023-11-21T20:29:04;3.55;;;3.25;;
52468;SDS011;38381;53.688;10.776;2023-11-21T20:34:05;3.47;;;3.17;;
52468;SDS011;38381;53.688;10.776;2023-11-21T20:39:06;2.70;;;2.50;;
52468;SDS011;38381;53.688;10.776;2023-11-21T20:44:06;2.78;;;2.53;;
52468;SDS011;38381;53.688;10.776;2023-11-21T20:49:14;3.88;;;2.53;;
52468;SDS011;38381;53.688;10.776;2023-11-21T20:54:14;3.28;;;2.63;;
52468;SDS011;38381;53.688;10.776;2023-11-21T20:59:15;3.45;;;3.00;;
52468;SDS011;38381;53.688;10.776;2023-11-21T21:04:15;3.67;;;2.70;;
52468;SDS011;38381;53.688;10.776;2023-11-21T21:09:18;5.00;;;3.35;;
52468;SDS011;38381;53.688;10.776;2023-11-21T21:14:18;5.57;;;3.75;;
52468;SDS011;38381;53.688;10.776;2023-11-21T21:19:18;4.57;;;3.20;;
52468;SDS011;38381;53.688;10.776;2023-11-21T21:24:19;3.55;;;3.17;;
52468;SDS011;38381;53.688;10.776;2023-11-21T21:29:19;3.88;;;3.53;;
52468;SDS011;38381;53.688;10.776;2023-11-21T21:34:21;3.97;;;3.47;;
52468;SDS011;38381;53.688;10.776;2023-11-21T21:39:21;4.07;;;3.67;;
52468;SDS011;38381;53.688;10.776;2023-11-21T21:44:22;5.88;;;3.38;;
52468;SDS011;38381;53.688;10.776;2023-11-21T21:49:22;3.97;;;3.15;;
52468;SDS011;38381;53.688;10.776;2023-11-21T21:54:23;3.70;;;3.40;;
52468;SDS011;38381;53.688;10.776;2023-11-21T21:59:24;4.28;;;3.00;;
52468;SDS011;38381;53.688;10.776;2023-11-21T22:04:25;5.18;;;3.90;;
52468;SDS011;38381;53.688;10.776;2023-11-21T22:09:25;4.65;;;3.28;;
52468;SDS011;38381;53.688;10.776;2023-11-21T22:14:25;3.57;;;3.20;;
52468;SDS011;38381;53.688;10.776;2023-11-21T22:19:26;3.80;;;2.90;;
52468;SDS011;38381;53.688;10.776;2023-11-21T22:24:26;6.63;;;3.53;;
52468;SDS011;38381;53.688;10.776;2023-11-21T22:29:27;4.03;;;3.60;;
52468;SDS011;38381;53.688;10.776;2023-11-21T22:34:28;4.32;;;3.63;;
52468;SDS011;38381;53.688;10.776;2023-11-21T22:39:28;3.17;;;2.90;;
52468;SDS011;38381;53.688;10.776;2023-11-21T22:44:29;5.03;;;3.10;;
52468;SDS011;38381;53.688;10.776;2023-11-21T22:49:29;4.43;;;3.40;;
52468;SDS011;38381;53.688;10.776;2023-11-21T22:54:29;4.17;;;3.67;;
52468;SDS011;38381;53.688;10.776;2023-11-21T22:59:30;4.30;;;3.90;;
52468;SDS011;38381;53.688;10.776;2023-11-21T23:04:30;3.50;;;3.15;;
52468;SDS011;38381;53.688;10.776;2023-11-21T23:09:32;4.47;;;3.20;;
52468;SDS011;38381;53.688;10.776;2023-11-21T23:14:32;5.07;;;4.67;;
52468;SDS011;38381;53.688;10.776;2023-11-21T23:19:33;5.40;;;4.90;;
52468;SDS011;38381;53.688;10.776;2023-11-21T23:24:33;4.25;;;3.67;;
52468;SDS011;38381;53.688;10.776;2023-11-21T23:29:33;3.40;;;3.10;;
52468;SDS011;38381;53.688;10.776;2023-11-21T23:34:35;3.42;;;3.13;;
52468;SDS011;38381;53.688;10.776;2023-11-21T23:39:35;8.30;;;3.88;;
52468;SDS011;38381;53.688;10.776;2023-11-21T23:44:36;3.60;;;3.30;;
52468;SDS011;38381;53.688;10.776;2023-11-21T23:49:36;3.10;;;2.80;;
52468;SDS011;38381;53.688;10.776;2023-11-21T23:54:37;6.35;;;3.65;;
52468;SDS011;38381;53.688;10.776;2023-11-21T23:59:37;3.72;;;3.33;;
